Time;durP1;ratioP1;P1;durP2;ratioP2;P2;SDS_P1;SDS_P2;PMS_P1;PMS_P2;Temp;Humidity;BMP_temperature;BMP_pressure;BME280_temperature;BME280_humidity;BME280_pressure;Samples;Min_cycle;Max_cycle;Signal;HPM_P1;HPM_P2
2022/11/22 00:00:37;;;;;;;2.03;1.15;;;7.00;99.90;;;;;;5088040;28;20032;-75
2022/11/22 00:03:03;;;;;;;3.40;1.70;;;7.00;99.90;;;;;;5086879;28;20169;-75
2022/11/22 00:05:28;;;;;;;6.50;1.02;;;7.00;99.90;;;;;;5086809;28;20082;-75
2022/11/22 00:07:54;;;;;;;2.05;1.20;;;7.00;99.90;;;;;;5102481;28;20417;-75
2022/11/22 00:10:20;;;;;;;0.75;0.65;;;7.00;99.90;;;;;;5087646;28;20570;-76
2022/11/22 00:12:45;;;;;;;1.55;1.10;;;7.00;99.90;;;;;;5087450;28;20047;-75
2022/11/22 00:15:11;;;;;;;3.85;1.10;;;7.00;99.90;;;;;;5086719;28;20031;-76
2022/11/22 00:17:37;;;;;;;1.20;0.90;;;7.10;99.90;;;;;;5086643;28;20024;-76
2022/11/22 00:20:04;;;;;;;7.00;2.80;;;7.00;99.90;;;;;;5085076;28;20128;-76
2022/11/22 00:22:31;;;;;;;6.40;2.17;;;7.10;99.90;;;;;;5086979;28;20116;-77
2022/11/22 00:24:56;;;;;;;4.10;1.10;;;7.10;99.90;;;;;;5086495;28;20117;-77
2022/11/22 00:27:22;;;;;;;4.82;1.58;;;7.10;99.90;;;;;;5086756;28;20508;-76
2022/11/22 00:29:48;;;;;;;3.92;1.35;;;7.10;99.90;;;;;;5086500;28;20035;-76
2022/11/22 00:32:14;;;;;;;0.70;0.60;;;7.20;99.90;;;;;;5087014;28;20032;-76
2022/11/22 00:34:40;;;;;;;5.28;1.13;;;7.20;99.90;;;;;;5101802;28;20680;-77
2022/11/22 00:37:06;;;;;;;2.58;0.80;;;7.20;99.90;;;;;;5085864;28;20056;-76
2022/11/22 00:39:32;;;;;;;6.28;1.20;;;7.20;99.90;;;;;;5086703;28;20111;-76
2022/11/22 00:41:57;;;;;;;1.27;0.70;;;7.10;99.90;;;;;;5086666;28;20125;-76
2022/11/22 00:44:23;;;;;;;3.97;1.70;;;7.10;99.90;;;;;;5086532;28;20060;-76
2022/11/22 00:46:49;;;;;;;6.70;1.38;;;7.10;99.90;;;;;;5086553;28;20112;-74
2022/11/22 00:49:14;;;;;;;2.75;1.17;;;7.10;99.90;;;;;;5085727;28;20066;-75
2022/11/22 00:51:40;;;;;;;4.78;1.63;;;7.10;99.90;;;;;;5089744;28;20461;-75
2022/11/22 00:54:06;;;;;;;6.63;1.70;;;7.10;99.90;;;;;;5092318;28;20097;-76
2022/11/22 00:56:32;;;;;;;6.10;1.98;;;7.10;99.90;;;;;;5090779;28;20027;-77
2022/11/22 00:58:58;;;;;;;5.10;0.70;;;7.10;99.90;;;;;;5089159;28;20024;-76
2022/11/22 01:01:23;;;;;;;14.13;1.73;;;7.10;99.90;;;;;;5091601;28;20021;-76
2022/11/22 01:03:49;;;;;;;1.92;0.80;;;7.10;99.90;;;;;;5088507;28;20469;-76
2022/11/22 01:06:15;;;;;;;8.40;2.33;;;7.10;99.90;;;;;;5088553;28;20031;-75
2022/11/22 01:08:40;;;;;;;1.85;1.15;;;7.10;99.90;;;;;;5089918;28;20024;-76
2022/11/22 01:11:06;;;;;;;3.42;1.75;;;7.00;99.90;;;;;;5090067;28;20032;-78
2022/11/22 01:13:32;;;;;;;3.72;2.45;;;7.10;99.90;;;;;;5088720;28;20028;-75
2022/11/22 01:16:00;;;;;;;3.38;1.70;;;7.10;99.90;;;;;;5090492;28;20918;-75
2022/11/22 01:18:26;;;;;;;3.38;1.45;;;7.10;99.90;;;;;;5088298;28;20483;-75
2022/11/22 01:20:51;;;;;;;5.68;2.25;;;7.10;99.90;;;;;;5088851;28;20116;-76
2022/11/22 01:23:17;;;;;;;7.32;1.90;;;7.00;99.90;;;;;;5090882;28;20026;-79
2022/11/22 01:25:43;;;;;;;5.82;1.05;;;7.00;99.90;;;;;;5092247;28;20036;-76
2022/11/22 01:28:09;;;;;;;3.13;1.80;;;7.00;99.90;;;;;;5087214;28;20025;-76
2022/11/22 01:30:35;;;;;;;5.20;1.10;;;6.90;99.90;;;;;;5089323;28;20031;-77
2022/11/22 01:33:01;;;;;;;1.67;0.70;;;6.90;99.90;;;;;;5088633;28;20047;-76
2022/11/22 01:35:26;;;;;;;0.80;0.68;;;6.90;99.90;;;;;;5089234;28;20050;-75
2022/11/22 01:37:52;;;;;;;4.00;1.00;;;6.90;99.90;;;;;;5090042;28;20085;-77
2022/11/22 01:40:18;;;;;;;7.05;0.68;;;6.90;99.90;;;;;;5089947;28;20358;-75
2022/11/22 01:42:55;;;;;;;3.15;1.17;;;7.00;99.90;;;;;;5090828;28;20032;-81
2022/11/22 01:45:30;;;;;;;1.55;1.02;;;6.90;99.90;;;;;;5089258;28;20043;-76
2022/11/22 01:48:13;;;;;;;1.83;1.13;;;6.90;99.90;;;;;;5088274;28;20492;-76
2022/11/22 01:50:42;;;;;;;5.50;0.98;;;6.90;99.90;;;;;;5090199;28;20031;-76
2022/11/22 01:53:20;;;;;;;;;;;6.90;99.90;;;;;;5091373;28;20263;-76
2022/11/22 01:55:47;;;;;;;5.07;1.27;;;6.90;99.90;;;;;;5090893;28;19998;-76
2022/11/22 01:58:14;;;;;;;4.90;0.98;;;6.80;99.90;;;;;;5090438;28;20031;-77
2022/11/22 02:00:41;;;;;;;3.90;0.85;;;6.80;99.90;;;;;;5090321;28;20109;-76
2022/11/22 02:03:10;;;;;;;3.97;1.40;;;6.80;99.90;;;;;;5104701;28;20166;-76
2022/11/22 02:05:36;;;;;;;1.58;0.63;;;6.80;99.90;;;;;;5090608;28;20039;-76
2022/11/22 02:08:20;;;;;;;0.90;0.73;;;6.80;99.90;;;;;;5091982;28;20028;-74
2022/11/22 02:10:50;;;;;;;2.72;1.38;;;6.80;99.90;;;;;;5090455;28;20119;-74
2022/11/22 02:13:19;;;;;;;6.10;1.25;;;6.80;99.90;;;;;;5090224;28;20024;-75
2022/11/22 02:15:44;;;;;;;2.53;0.80;;;6.80;99.90;;;;;;5090553;28;20031;-76
2022/11/22 02:18:10;;;;;;;9.48;1.27;;;6.80;99.90;;;;;;5090531;28;20028;-76
2022/11/22 02:20:38;;;;;;;2.65;1.27;;;6.80;99.90;;;;;;5089907;28;20461;-75
2022/11/22 02:23:12;;;;;;;3.45;1.38;;;6.80;99.90;;;;;;5089822;28;20412;-76
2022/11/22 02:25:41;;;;;;;12.00;2.45;;;6.80;99.90;;;;;;5089991;28;20058;-76
2022/11/22 02:28:09;;;;;;;5.25;1.17;;;6.80;99.90;;;;;;5091985;28;20018;-76
2022/11/22 02:30:39;;;;;;;7.63;1.20;;;6.80;99.90;;;;;;5091785;28;20024;-76
2022/11/22 02:33:05;;;;;;;10.80;2.45;;;6.70;99.90;;;;;;5091842;28;20027;-76
2022/11/22 02:35:31;;;;;;;6.78;1.27;;;6.70;99.90;;;;;;5091182;28;20560;-75
2022/11/22 02:38:26;;;;;;;3.78;1.83;;;6.70;99.90;;;;;;5106960;28;20389;-76
2022/11/22 02:40:58;;;;;;;3.25;1.38;;;6.70;99.90;;;;;;5091602;28;20465;-76
2022/11/22 02:43:30;;;;;;;0.90;0.90;;;6.70;99.90;;;;;;5091261;28;20042;-76
2022/11/22 02:46:05;;;;;;;10.43;2.10;;;6.70;99.90;;;;;;5090013;28;20388;-76
2022/11/22 02:48:31;;;;;;;3.35;1.02;;;6.60;99.90;;;;;;5107315;28;20077;-75
2022/11/22 02:50:57;;;;;;;16.17;1.98;;;6.60;99.90;;;;;;5090040;28;20036;-75
2022/11/22 02:53:23;;;;;;;5.13;1.80;;;6.60;99.90;;;;;;5089873;28;20066;-76
2022/11/22 02:55:48;;;;;;;1.50;1.40;;;6.60;99.90;;;;;;5091287;28;20020;-76
2022/11/22 02:58:14;;;;;;;4.78;1.60;;;6.50;99.90;;;;;;5089677;28;20208;-76
2022/11/22 03:00:40;;;;;;;11.88;1.42;;;6.50;99.90;;;;;;5091178;28;20032;-76
2022/11/22 03:03:06;;;;;;;1.90;1.20;;;6.50;99.90;;;;;;5091222;28;20029;-76
2022/11/22 03:05:31;;;;;;;6.72;1.73;;;6.50;99.90;;;;;;5090904;28;20043;-76
2022/11/22 03:07:57;;;;;;;6.88;1.95;;;6.40;99.90;;;;;;5090913;28;20051;-75
2022/11/22 03:10:23;;;;;;;3.60;0.65;;;6.40;99.90;;;;;;5089949;28;20049;-75
2022/11/22 03:12:48;;;;;;;8.27;2.03;;;6.40;99.90;;;;;;5089216;28;20048;-76
2022/11/22 03:15:14;;;;;;;5.63;1.35;;;6.30;99.90;;;;;;5089908;28;20024;-76
2022/11/22 03:17:40;;;;;;;4.90;1.30;;;6.30;99.90;;;;;;5088162;28;20406;-76
2022/11/22 03:20:06;;;;;;;2.17;1.17;;;6.30;99.90;;;;;;5089601;28;20023;-76
2022/11/22 03:22:32;;;;;;;1.90;1.27;;;6.30;99.90;;;;;;5088808;28;20142;-76
2022/11/22 03:24:57;;;;;;;1.35;0.88;;;6.30;99.90;;;;;;5104180;28;20128;-76
2022/11/22 03:27:23;;;;;;;6.38;2.10;;;6.30;99.90;;;;;;5089214;28;20024;-76
2022/11/22 03:29:49;;;;;;;9.57;1.73;;;6.30;99.90;;;;;;5088555;28;20020;-76
2022/11/22 03:32:14;;;;;;;3.38;1.58;;;6.30;99.90;;;;;;5087172;28;20137;-76
2022/11/22 03:34:40;;;;;;;4.22;1.08;;;6.30;99.90;;;;;;5088369;28;20221;-76
2022/11/22 03:37:05;;;;;;;3.45;0.80;;;6.40;99.90;;;;;;5089645;28;20044;-76
2022/11/22 03:39:31;;;;;;;7.05;2.03;;;6.40;99.90;;;;;;5090655;28;20077;-76
2022/11/22 03:41:57;;;;;;;3.03;1.20;;;6.40;99.90;;;;;;5090062;28;20061;-76
2022/11/22 03:44:23;;;;;;;4.38;2.20;;;6.50;99.90;;;;;;5090166;28;20107;-76
2022/11/22 03:46:48;;;;;;;6.32;1.73;;;6.40;99.90;;;;;;5090284;28;20020;-76
2022/11/22 03:49:14;;;;;;;1.83;0.80;;;6.50;99.90;;;;;;5089781;28;20028;-76
2022/11/22 03:51:40;;;;;;;9.30;1.00;;;6.50;99.90;;;;;;5090270;28;20026;-76
2022/11/22 03:54:05;;;;;;;4.15;1.10;;;6.50;99.90;;;;;;5088570;28;20027;-75
2022/11/22 03:56:31;;;;;;;13.25;1.48;;;6.50;99.90;;;;;;5090837;28;20395;-76
2022/11/22 03:58:57;;;;;;;5.35;1.52;;;6.60;99.90;;;;;;5090377;28;20460;-76
2022/11/22 04:01:22;;;;;;;4.95;1.67;;;6.60;99.90;;;;;;5090385;28;20506;-76
2022/11/22 04:03:48;;;;;;;5.07;0.98;;;6.70;99.90;;;;;;5089747;28;20461;-75
2022/11/22 04:06:13;;;;;;;3.75;0.55;;;6.70;99.90;;;;;;5105589;28;20034;-76
2022/11/22 04:08:39;;;;;;;0.60;0.60;;;6.70;99.90;;;;;;5089717;28;20030;-76
2022/11/22 04:11:05;;;;;;;9.85;1.42;;;6.70;99.90;;;;;;5089634;28;20028;-76
2022/11/22 04:16:14;;;;;;;3.75;1.77;;;6.60;99.90;;;;;;5089802;28;20507;-76
2022/11/22 04:18:40;;;;;;;2.50;1.30;;;6.60;99.90;;;;;;5088352;28;20036;-76
2022/11/22 04:25:12;;;;;;;1.38;0.60;;;6.50;99.90;;;;;;5090140;28;20545;-75
2022/11/22 04:26:35;;;;;;;3.03;1.63;;;6.40;99.90;;;;;;5092437;28;20020;-76
2022/11/22 04:29:01;;;;;;;10.05;3.58;;;6.40;99.90;;;;;;5093736;28;20116;-76
2022/11/22 04:34:11;;;;;;;2.88;2.15;;;6.30;99.90;;;;;;5093479;28;20063;-75
2022/11/22 04:36:37;;;;;;;1.42;1.15;;;6.30;99.90;;;;;;5093655;28;20469;-75
2022/11/22 04:39:02;;;;;;;20.90;7.85;;;6.30;99.90;;;;;;5092672;28;20038;-76
2022/11/22 04:41:28;;;;;;;5.78;1.83;;;6.30;99.90;;;;;;5109514;28;20026;-75
2022/11/22 04:46:38;;;;;;;8.43;2.40;;;6.20;99.90;;;;;;5093401;28;20085;-75
2022/11/22 04:49:03;;;;;;;3.80;1.52;;;6.20;99.90;;;;;;5093197;28;20020;-75
2022/11/22 04:54:13;;;;;;;1.92;1.50;;;6.10;99.90;;;;;;5093863;28;20533;-75
2022/11/22 04:56:39;;;;;;;5.53;1.88;;;6.10;99.90;;;;;;5093267;28;20024;-75
2022/11/22 04:59:04;;;;;;;7.50;2.45;;;6.10;99.90;;;;;;5093209;28;20093;-75
2022/11/22 05:01:30;;;;;;;3.45;1.98;;;6.10;99.90;;;;;;5091912;28;20023;-75
2022/11/22 05:03:55;;;;;;;2.40;0.77;;;6.10;99.90;;;;;;5092973;28;20092;-75
2022/11/22 05:06:21;;;;;;;5.22;1.23;;;6.00;99.90;;;;;;5093298;28;20081;-75
2022/11/22 05:08:47;;;;;;;3.83;1.15;;;6.10;99.90;;;;;;5093225;28;20032;-76
2022/11/22 05:11:12;;;;;;;1.30;0.90;;;6.10;99.90;;;;;;5093272;28;20103;-75
2022/11/22 05:13:40;;;;;;;1.70;1.38;;;6.10;99.90;;;;;;5108954;28;20517;-75
2022/11/22 05:16:08;;;;;;;3.22;1.25;;;6.10;99.90;;;;;;5093419;28;20073;-75
2022/11/22 05:18:34;;;;;;;1.30;0.70;;;6.00;99.90;;;;;;5093133;28;20031;-76
2022/11/22 05:21:13;;;;;;;0.95;0.70;;;6.00;99.90;;;;;;5108567;28;20466;-76
2022/11/22 05:23:54;;;;;;;5.18;1.40;;;5.90;99.90;;;;;;5091273;28;20020;-75
2022/11/22 05:26:27;;;;;;;0.95;0.60;;;5.90;99.90;;;;;;5091310;28;20112;-76
2022/11/22 05:28:53;;;;;;;5.88;1.17;;;5.90;99.90;;;;;;5093020;28;20380;-76
2022/11/22 05:31:22;;;;;;;6.22;0.70;;;5.90;99.90;;;;;;5091746;28;20456;-76
2022/11/22 05:33:49;;;;;;;2.67;0.68;;;5.80;99.90;;;;;;5091498;28;20345;-75
2022/11/22 05:36:15;;;;;;;7.05;1.67;;;5.90;99.90;;;;;;5091181;28;20135;-75
2022/11/22 05:38:41;;;;;;;2.00;0.90;;;5.90;99.90;;;;;;5092660;28;20035;-75
2022/11/22 05:41:09;;;;;;;2.42;1.17;;;5.80;99.90;;;;;;5092726;28;20024;-76
2022/11/22 05:43:35;;;;;;;8.48;1.13;;;5.80;99.90;;;;;;5092688;28;20035;-75
2022/11/22 05:46:18;;;;;;;6.97;1.08;;;5.80;99.90;;;;;;5092660;28;20028;-75
2022/11/22 05:48:46;;;;;;;2.47;0.95;;;5.70;99.90;;;;;;5090800;28;20114;-75
2022/11/22 05:51:14;;;;;;;4.97;1.85;;;5.70;99.90;;;;;;5092371;28;20032;-75
2022/11/22 05:53:41;;;;;;;1.00;0.68;;;5.70;99.90;;;;;;5092424;28;20027;-75
2022/11/22 05:56:14;;;;;;;3.65;1.02;;;5.70;99.90;;;;;;5092937;28;20089;-76
2022/11/22 05:58:40;;;;;;;2.97;1.25;;;5.60;99.90;;;;;;5092326;28;20024;-76
2022/11/22 06:01:09;;;;;;;6.95;2.28;;;5.60;99.90;;;;;;5092376;28;20020;-75
2022/11/22 06:03:36;;;;;;;2.60;1.63;;;5.50;99.90;;;;;;5092543;28;20112;-75
2022/11/22 06:06:03;;;;;;;2.90;1.20;;;5.60;99.90;;;;;;5091992;28;20028;-75
2022/11/22 06:08:30;;;;;;;4.53;0.90;;;5.60;99.90;;;;;;5092008;28;20472;-76
2022/11/22 06:11:03;;;;;;;3.95;1.38;;;5.60;99.90;;;;;;5090730;28;20028;-76
2022/11/22 06:13:35;;;;;;;3.78;0.88;;;5.60;99.90;;;;;;5092139;28;20422;-75
2022/11/22 06:16:02;;;;;;;2.08;0.52;;;5.60;99.90;;;;;;5091784;28;20066;-75
2022/11/22 06:18:29;;;;;;;0.73;0.40;;;5.50;99.90;;;;;;5090629;28;20024;-76
2022/11/22 06:20:58;;;;;;;3.67;1.15;;;5.50;99.90;;;;;;5091943;28;20073;-75
2022/11/22 06:23:25;;;;;;;4.30;0.68;;;5.50;99.90;;;;;;5091606;28;20046;-75
2022/11/22 06:26:02;;;;;;;0.60;0.60;;;5.50;99.90;;;;;;5090323;28;20059;-76
2022/11/22 06:28:29;;;;;;;0.55;0.55;;;5.50;99.90;;;;;;5091742;28;20027;-76
2022/11/22 06:31:06;;;;;;;2.75;1.27;;;5.40;99.90;;;;;;5091703;28;20389;-77
2022/11/22 06:33:33;;;;;;;2.30;0.88;;;5.30;99.90;;;;;;5089971;28;20020;-75
2022/11/22 06:36:04;;;;;;;3.15;0.90;;;5.40;99.90;;;;;;5090343;28;20201;-76
2022/11/22 06:38:29;;;;;;;1.17;0.73;;;5.30;99.90;;;;;;5090141;28;20054;-76
2022/11/22 06:41:06;;;;;;;1.35;1.25;;;5.40;99.90;;;;;;5106877;28;20063;-76
2022/11/22 06:43:33;;;;;;;10.65;1.27;;;5.40;99.90;;;;;;5091263;28;20358;-76
2022/11/22 06:46:01;;;;;;;1.13;0.60;;;5.40;99.90;;;;;;5091270;28;20242;-76
2022/11/22 06:48:29;;;;;;;3.13;0.57;;;5.40;99.90;;;;;;5098012;28;20022;-76
2022/11/22 06:51:04;;;;;;;1.60;0.95;;;5.40;99.90;;;;;;5092249;28;20035;-77
2022/11/22 06:53:32;;;;;;;1.77;0.70;;;5.40;99.90;;;;;;5094975;28;20028;-76
2022/11/22 06:56:01;;;;;;;3.63;1.10;;;5.40;99.90;;;;;;5097328;28;20020;-76
2022/11/22 06:58:27;;;;;;;2.45;1.80;;;5.40;99.90;;;;;;5097173;28;20024;-76
2022/11/22 07:00:57;;;;;;;3.47;0.82;;;5.40;99.90;;;;;;5094665;28;20089;-78
2022/11/22 07:03:23;;;;;;;4.32;0.93;;;5.50;99.90;;;;;;5090543;28;20047;-75
2022/11/22 07:05:50;;;;;;;2.28;1.05;;;5.50;99.90;;;;;;5090209;28;20468;-76
2022/11/22 07:08:16;;;;;;;6.20;0.85;;;5.50;99.90;;;;;;5088136;28;20456;-76
2022/11/22 07:10:42;;;;;;;2.70;0.73;;;;;;;;;;5105016;28;20111;-76
2022/11/22 07:13:08;;;;;;;0.52;0.50;;;5.60;99.90;;;;;;5089269;28;20046;-75
2022/11/22 07:15:33;;;;;;;1.63;0.60;;;5.60;99.90;;;;;;5104637;28;20496;-76
2022/11/22 07:17:59;;;;;;;4.18;1.00;;;5.60;99.90;;;;;;5089035;28;20028;-76
2022/11/22 07:20:25;;;;;;;4.57;1.30;;;5.60;99.90;;;;;;5104390;28;20449;-76
2022/11/22 07:22:50;;;;;;;4.25;1.05;;;5.70;99.90;;;;;;5105340;28;20493;-77
2022/11/22 07:25:16;;;;;;;1.75;0.70;;;5.80;99.90;;;;;;5089075;28;20536;-76
2022/11/22 07:27:41;;;;;;;10.70;1.85;;;5.80;99.90;;;;;;5090641;28;20070;-76
2022/11/22 07:30:08;;;;;;;1.83;0.70;;;5.80;99.90;;;;;;5090278;28;20044;-76
2022/11/22 07:32:33;;;;;;;0.30;0.30;;;5.90;99.90;;;;;;5090455;28;20167;-76
2022/11/22 07:34:59;;;;;;;4.53;1.08;;;5.90;99.90;;;;;;5089927;28;20465;-76
2022/11/22 07:37:25;;;;;;;1.63;0.50;;;5.90;99.90;;;;;;5089366;28;20039;-77
2022/11/22 07:39:50;;;;;;;3.60;1.48;;;5.90;99.90;;;;;;5090417;28;20055;-75
2022/11/22 07:42:16;;;;;;;1.05;0.30;;;5.90;99.90;;;;;;5090490;28;20108;-76
2022/11/22 07:44:41;;;;;;;1.33;0.35;;;5.90;99.90;;;;;;5090428;28;20117;-77
2022/11/22 07:47:07;;;;;;;1.15;0.98;;;5.90;99.90;;;;;;5090883;28;20044;-76
2022/11/22 07:49:33;;;;;;;1.33;0.93;;;5.90;99.90;;;;;;5090175;28;20063;-83
2022/11/22 07:51:58;;;;;;;0.80;0.80;;;6.00;99.90;;;;;;5106436;28;20016;-78
2022/11/22 07:54:24;;;;;;;5.82;2.05;;;6.00;99.90;;;;;;5090626;28;20030;-78
2022/11/22 07:56:50;;;;;;;3.47;1.13;;;6.10;99.90;;;;;;5090831;28;20038;-79
2022/11/22 07:59:16;;;;;;;3.80;0.70;;;6.10;99.90;;;;;;5106116;28;20032;-80
2022/11/22 08:01:42;;;;;;;9.02;1.65;;;6.10;99.90;;;;;;5106251;28;20492;-79
2022/11/22 08:04:08;;;;;;;5.68;0.45;;;6.10;99.90;;;;;;5090676;28;20016;-80
2022/11/22 08:06:34;;;;;;;2.42;0.93;;;6.20;99.90;;;;;;5090720;28;20026;-80
2022/11/22 08:08:59;;;;;;;2.35;0.40;;;6.30;99.90;;;;;;5089413;28;20489;-76
2022/11/22 08:11:25;;;;;;;0.93;0.52;;;6.30;99.90;;;;;;5105607;28;20444;-76
2022/11/22 08:13:51;;;;;;;2.75;1.33;;;6.40;99.90;;;;;;5089772;28;20545;-77
2022/11/22 08:16:17;;;;;;;2.88;0.70;;;6.40;99.90;;;;;;5105570;28;20280;-77
2022/11/22 08:18:49;;;;;;;3.55;1.58;;;6.40;99.90;;;;;;5088970;28;20033;-76
2022/11/22 08:21:17;;;;;;;1.75;0.65;;;6.50;99.90;;;;;;5084257;28;20023;-76
2022/11/22 08:23:43;;;;;;;10.73;0.82;;;6.50;99.90;;;;;;5086791;28;20059;-76
2022/11/22 08:26:11;;;;;;;3.42;0.50;;;6.60;99.90;;;;;;5085410;28;20066;-77
2022/11/22 08:28:38;;;;;;;2.38;0.40;;;6.70;99.90;;;;;;5086439;28;20452;-77
2022/11/22 08:31:07;;;;;;;2.30;1.30;;;6.40;99.90;;;;;;5083956;28;20528;-76
2022/11/22 08:33:33;;;;;;;0.45;0.40;;;7.60;99.90;;;;;;5074130;28;20497;-76
2022/11/22 08:35:59;;;;;;;0.73;0.40;;;7.50;99.90;;;;;;5080582;28;20117;-76
2022/11/22 08:38:25;;;;;;;2.83;0.70;;;6.90;99.90;;;;;;5082857;28;20162;-75
2022/11/22 08:40:51;;;;;;;6.10;1.13;;;7.00;99.90;;;;;;5083745;28;20191;-76
2022/11/22 08:43:17;;;;;;;0.85;0.40;;;7.10;99.90;;;;;;5084301;28;20702;-76
2022/11/22 08:45:42;;;;;;;0.77;0.70;;;7.20;99.90;;;;;;5084725;28;20051;-76
2022/11/22 08:48:08;;;;;;;2.53;0.77;;;7.30;99.90;;;;;;5083996;28;20021;-76
2022/11/22 08:50:34;;;;;;;0.82;0.50;;;7.30;99.90;;;;;;5100663;28;20141;-76
2022/11/22 08:53:00;;;;;;;0.65;0.40;;;7.30;99.90;;;;;;5084461;28;20016;-76
2022/11/22 08:55:26;;;;;;;0.88;0.50;;;7.30;99.90;;;;;;5084699;28;20028;-75
2022/11/22 08:57:52;;;;;;;1.75;0.57;;;7.40;99.90;;;;;;5083248;28;20035;-77
2022/11/22 09:00:17;;;;;;;0.85;0.40;;;7.50;99.80;;;;;;5084777;28;20063;-77
2022/11/22 09:02:43;;;;;;;5.20;0.57;;;7.60;99.60;;;;;;5101614;28;20016;-77
2022/11/22 09:05:09;;;;;;;3.90;0.40;;;7.70;98.10;;;;;;5085792;28;20481;-77
2022/11/22 09:07:34;;;;;;;1.38;0.52;;;7.80;98.20;;;;;;5101705;28;20032;-76
2022/11/22 09:10:00;;;;;;;2.63;0.57;;;7.90;97.20;;;;;;5085778;28;20024;-76
2022/11/22 09:12:26;;;;;;;1.30;0.40;;;7.80;95.70;;;;;;5087886;28;20112;-76
2022/11/22 09:14:51;;;;;;;0.32;0.32;;;7.80;95.00;;;;;;5089662;28;20024;-75
2022/11/22 09:17:17;;;;;;;3.95;0.77;;;7.00;94.80;;;;;;5089291;28;20027;-76
2022/11/22 09:19:43;;;;;;;2.08;0.95;;;7.70;95.40;;;;;;5088229;28;20039;-76
2022/11/22 09:22:08;;;;;;;1.33;0.68;;;7.80;95.60;;;;;;5091009;28;20550;-77
2022/11/22 09:24:34;;;;;;;0.52;0.43;;;7.80;97.60;;;;;;5088280;28;20464;-77
2022/11/22 09:27:00;;;;;;;1.85;0.30;;;7.90;97.20;;;;;;5088448;28;20378;-77
2022/11/22 09:29:26;;;;;;;0.90;0.80;;;7.90;96.00;;;;;;5088267;28;20085;-79
2022/11/22 09:31:52;;;;;;;2.05;0.95;;;7.70;95.90;;;;;;5088361;28;20031;-76
2022/11/22 09:34:17;;;;;;;1.98;0.57;;;7.70;96.50;;;;;;5088425;28;20028;-76
2022/11/22 09:36:43;;;;;;;2.60;0.73;;;;;;;;;;5089502;28;20043;-82
2022/11/22 09:39:09;;;;;;;1.10;1.00;;;7.50;95.40;;;;;;5088563;28;20016;-76
2022/11/22 09:41:38;;;;;;;3.45;0.47;;;7.40;95.70;;;;;;5087229;28;20024;-76
2022/11/22 09:44:40;;;;;;;0.50;0.38;;;7.50;95.70;;;;;;5086275;28;20031;-75
2022/11/22 09:47:27;;;;;;;3.97;0.85;;;7.50;95.70;;;;;;5086940;28;20024;-75
2022/11/22 09:50:12;;;;;;;2.22;1.05;;;7.50;96.60;;;;;;5087180;28;20016;-76
2022/11/22 09:52:58;;;;;;;2.17;0.90;;;7.40;96.00;;;;;;5088334;28;20128;-76
2022/11/22 09:55:45;;;;;;;5.07;0.68;;;7.30;96.60;;;;;;5087193;28;20029;-75
2022/11/22 09:58:29;;;;;;;0.30;0.30;;;7.20;96.90;;;;;;5089827;28;20115;-76
2022/11/22 10:01:10;;;;;;;0.32;0.30;;;7.20;97.30;;;;;;5087153;28;20512;-76
2022/11/22 10:03:50;;;;;;;0.40;0.40;;;7.20;97.10;;;;;;5088251;28;20426;-76
2022/11/22 10:06:26;;;;;;;0.30;0.30;;;7.20;97.10;;;;;;5087585;28;20473;-75
2022/11/22 10:09:16;;;;;;;4.38;1.10;;;7.20;96.40;;;;;;5087829;28;20031;-75
2022/11/22 10:11:52;;;;;;;0.30;0.30;;;7.40;96.90;;;;;;5087407;28;20062;-78
2022/11/22 10:14:36;;;;;;;1.27;0.50;;;7.60;97.40;;;;;;5086781;28;20020;-76
2022/11/22 10:17:23;;;;;;;0.30;0.30;;;7.70;96.40;;;;;;5088003;28;20421;-75
2022/11/22 10:20:11;;;;;;;0.85;0.68;;;7.70;95.70;;;;;;5087735;28;20093;-75
2022/11/22 10:22:37;;;;;;;1.17;0.80;;;7.80;95.70;;;;;;5091710;28;20068;-76
2022/11/22 10:25:15;;;;;;;2.15;0.88;;;8.00;96.90;;;;;;5088094;28;20071;-76
2022/11/22 10:27:42;;;;;;;2.63;0.55;;;8.20;95.00;;;;;;5086692;28;20315;-76
2022/11/22 10:30:17;;;;;;;2.25;0.40;;;8.30;95.40;;;;;;5088292;28;20560;-76
2022/11/22 10:32:56;;;;;;;0.77;0.43;;;8.40;93.80;;;;;;5088389;28;20020;-76
2022/11/22 10:35:25;;;;;;;0.75;0.75;;;8.60;92.70;;;;;;5087954;28;20127;-76
2022/11/22 10:37:57;;;;;;;1.75;0.70;;;8.60;93.00;;;;;;5086926;28;20111;-75
2022/11/22 10:41:02;;;;;;;0.60;0.50;;;8.60;92.70;;;;;;5088207;28;20017;-76
2022/11/22 10:43:36;;;;;;;1.98;0.90;;;8.70;93.10;;;;;;5088632;28;20429;-81
2022/11/22 10:46:42;;;;;;;0.40;0.40;;;8.90;91.60;;;;;;5088504;28;20110;-77
2022/11/22 10:49:23;;;;;;;0.77;0.70;;;8.90;91.80;;;;;;5058624;28;20032;-76
2022/11/22 10:52:43;;;;;;;1.45;0.30;;;8.60;92.10;;;;;;5124651;27;20179;-76
2022/11/22 10:55:27;;;;;;;1.02;0.10;;;8.40;91.30;;;;;;5104831;28;20054;-76
2022/11/22 10:58:07;;;;;;;0.38;0.30;;;8.20;91.70;;;;;;5104390;28;20480;-75
2022/11/22 11:00:38;;;;;;;0.35;0.15;;;8.20;92.70;;;;;;5104947;28;20019;-77
2022/11/22 11:03:29;;;;;;;0.52;0.17;;;8.20;92.10;;;;;;5104326;28;20031;-76
2022/11/22 11:05:58;;;;;;;0.10;0.10;;;8.10;92.10;;;;;;5086167;28;20024;-76
2022/11/22 11:08:59;;;;;;;0.75;0.28;;;11.60;92.80;;;;;;5104286;28;20098;-76
2022/11/22 11:11:29;;;;;;;0.10;0.10;;;8.40;92.10;;;;;;5081547;28;20159;-76
2022/11/22 11:14:05;;;;;;;;;;;8.50;91.50;;;;;;5086216;28;20114;-76
2022/11/22 11:16:35;;;;;;;0.47;0.17;;;8.50;91.60;;;;;;5104281;28;19908;-76
2022/11/22 11:19:10;;;;;;;2.45;0.20;;;8.60;91.60;;;;;;5085077;28;20028;-76
2022/11/22 11:21:36;;;;;;;0.10;0.10;;;8.80;91.20;;;;;;5085819;28;20057;-77
2022/11/22 11:24:05;;;;;;;0.47;0.30;;;8.90;91.80;;;;;;5085547;28;20044;-77
2022/11/22 11:26:34;;;;;;;0.10;0.10;;;8.90;90.40;;;;;;5103721;28;20023;-77
2022/11/22 11:29:18;;;;;;;1.67;0.60;;;8.80;91.80;;;;;;5103299;28;20120;-77
2022/11/22 11:31:47;;;;;;;0.20;0.20;;;8.60;91.70;;;;;;5103159;28;20032;-76
2022/11/22 11:34:25;;;;;;;0.10;0.10;;;8.70;92.40;;;;;;5103096;28;20081;-77
2022/11/22 11:36:55;;;;;;;0.40;0.20;;;8.80;91.90;;;;;;5103602;28;20510;-78
2022/11/22 11:39:22;;;;;;;0.20;0.20;;;8.90;92.30;;;;;;5103568;28;20172;-77
2022/11/22 11:41:49;;;;;;;0.88;0.17;;;9.10;91.10;;;;;;5103455;28;20053;-75
2022/11/22 11:44:27;;;;;;;0.20;0.20;;;9.00;90.70;;;;;;5085274;28;20023;-77
2022/11/22 11:46:53;;;;;;;0.20;0.20;;;9.20;90.40;;;;;;5102106;28;20059;-76
2022/11/22 11:49:33;;;;;;;0.20;0.20;;;9.10;89.00;;;;;;5084789;28;20299;-76
2022/11/22 11:52:02;;;;;;;0.17;0.17;;;9.00;88.50;;;;;;5102930;28;20089;-76
2022/11/22 11:54:51;;;;;;;0.40;0.40;;;9.10;91.10;;;;;;5084376;28;20031;-76
2022/11/22 11:57:22;;;;;;;0.30;0.30;;;9.30;92.00;;;;;;5101968;28;20444;-76
2022/11/22 11:59:50;;;;;;;0.20;0.20;;;9.30;88.20;;;;;;5103322;28;20030;-76
2022/11/22 12:02:23;;;;;;;2.50;0.30;;;9.00;88.10;;;;;;5096064;28;20048;-76
2022/11/22 12:04:56;;;;;;;1.65;0.45;;;9.00;89.40;;;;;;5089397;28;20034;-76
2022/11/22 12:07:34;;;;;;;4.72;0.35;;;9.20;90.20;;;;;;5071014;28;20089;-76
2022/11/22 12:10:02;;;;;;;4.05;0.40;;;9.20;88.70;;;;;;5089313;28;20103;-76
2022/11/22 12:12:45;;;;;;;1.75;0.30;;;9.30;88.60;;;;;;5089192;28;20039;-76
2022/11/22 12:15:28;;;;;;;0.85;0.28;;;9.50;87.70;;;;;;5075616;28;20173;-76
2022/11/22 12:18:03;;;;;;;0.30;0.30;;;9.50;88.60;;;;;;5068417;28;20088;-76
2022/11/22 12:20:50;;;;;;;11.35;0.68;;;9.30;86.20;;;;;;5051246;28;20528;-76
2022/11/22 12:23:35;;;;;;;0.30;0.30;;;9.40;88.50;;;;;;5068989;28;20025;-75
2022/11/22 12:26:01;;;;;;;0.98;0.63;;;9.40;87.90;;;;;;5051031;28;20027;-76
2022/11/22 12:28:28;;;;;;;3.53;0.47;;;9.40;87.50;;;;;;5068725;28;20020;-76
2022/11/22 12:30:59;;;;;;;0.45;0.43;;;9.40;87.70;;;;;;5068579;28;20082;-78
2022/11/22 12:33:34;;;;;;;2.65;0.30;;;9.40;86.20;;;;;;5050750;28;20052;-78
2022/11/22 12:36:03;;;;;;;0.93;0.40;;;9.40;86.30;;;;;;5068878;28;20024;-76
2022/11/22 12:38:35;;;;;;;0.20;0.20;;;9.40;90.00;;;;;;5068426;28;20028;-76
2022/11/22 12:41:06;;;;;;;0.25;0.25;;;9.40;87.00;;;;;;5068582;28;20108;-75
2022/11/22 12:43:40;;;;;;;4.35;1.05;;;9.50;87.30;;;;;;5050347;28;20086;-77
2022/11/22 12:46:20;;;;;;;1.02;0.38;;;9.70;85.40;;;;;;5050181;28;20487;-75
2022/11/22 12:49:01;;;;;;;1.70;0.70;;;10.00;88.00;;;;;;5050416;28;20091;-76
2022/11/22 12:51:50;;;;;;;2.90;0.40;;;10.00;84.70;;;;;;5067972;28;20133;-76
2022/11/22 12:54:22;;;;;;;0.25;0.22;;;10.00;88.20;;;;;;5049261;28;20028;-76
2022/11/22 12:56:52;;;;;;;2.17;0.30;;;10.00;84.20;;;;;;5067134;28;20035;-76
2022/11/22 12:59:37;;;;;;;1.65;0.32;;;9.90;84.90;;;;;;5067849;28;20021;-77
2022/11/22 13:02:02;;;;;;;2.20;0.47;;;10.00;85.70;;;;;;5050294;28;20132;-76
2022/11/22 13:04:57;;;;;;;0.15;0.15;;;10.00;85.20;;;;;;5067371;28;20115;-76
2022/11/22 13:07:45;;;;;;;0.50;0.45;;;10.00;83.90;;;;;;5066670;28;20481;-77
2022/11/22 13:10:21;;;;;;;1.25;0.32;;;10.00;87.00;;;;;;5066180;28;20495;-75
2022/11/22 13:12:48;;;;;;;2.30;0.32;;;9.90;82.60;;;;;;5066050;28;20028;-76
2022/11/22 13:15:21;;;;;;;1.17;0.40;;;9.60;84.20;;;;;;5065448;28;20020;-76
2022/11/22 13:17:48;;;;;;;1.13;0.35;;;9.30;83.70;;;;;;5065819;28;20078;-74
2022/11/22 13:20:16;;;;;;;1.45;0.40;;;9.20;84.40;;;;;;5066153;28;20059;-76
2022/11/22 13:22:56;;;;;;;0.63;0.30;;;9.10;85.50;;;;;;5048954;28;20089;-77
2022/11/22 13:25:40;;;;;;;0.98;0.30;;;9.00;86.10;;;;;;5049738;28;20074;-76